createdAt,value
2022-12-09T00:04:21.462Z,100.00
2022-12-09T00:09:23.417Z,100.00
2022-12-09T00:14:25.742Z,100.00
2022-12-09T00:19:27.649Z,100.00
2022-12-09T00:24:29.533Z,100.00
2022-12-09T00:29:31.548Z,100.00
2022-12-09T00:34:33.413Z,100.00
2022-12-09T00:39:35.123Z,100.00
2022-12-09T00:44:36.906Z,100.00
2022-12-09T00:49:38.995Z,100.00
2022-12-09T00:54:40.842Z,100.00
2022-12-09T01:00:36.494Z,100.00
2022-12-09T01:05:38.336Z,100.00
2022-12-09T01:10:42.093Z,100.00
2022-12-09T01:15:44.555Z,100.00
2022-12-09T01:20:56.485Z,100.00
2022-12-09T01:25:58.510Z,100.00
2022-12-09T01:31:17.834Z,100.00
2022-12-09T01:36:22.860Z,100.00
2022-12-09T01:41:25.053Z,100.00
2022-12-09T01:46:26.828Z,100.00
2022-12-09T01:51:30.476Z,100.00
2022-12-09T01:56:35.021Z,100.00
2022-12-09T02:01:38.825Z,100.00
2022-12-09T02:06:41.019Z,100.00
2022-12-09T02:12:08.374Z,100.00
2022-12-09T02:17:28.942Z,100.00
2022-12-09T02:22:40.837Z,100.00
2022-12-09T02:27:59.164Z,100.00
2022-12-09T02:33:19.454Z,100.00
2022-12-09T02:38:31.934Z,100.00
2022-12-09T02:43:41.137Z,100.00
2022-12-09T02:48:55.937Z,100.00
2022-12-09T02:54:03.992Z,100.00
2022-12-09T02:59:09.608Z,100.00
2022-12-09T03:04:21.346Z,100.00
2022-12-09T03:09:33.989Z,100.00
2022-12-09T03:14:41.883Z,100.00
2022-12-09T03:20:05.045Z,100.00
2022-12-09T03:25:26.392Z,100.00
2022-12-09T03:30:36.770Z,100.00
2022-12-09T03:35:46.458Z,100.00
2022-12-09T03:40:53.949Z,100.00
2022-12-09T03:45:57.523Z,100.00
2022-12-09T03:51:15.913Z,100.00
2022-12-09T03:56:45.532Z,100.00
2022-12-09T04:01:47.808Z,100.00
2022-12-09T04:06:51.758Z,100.00
2022-12-09T04:11:53.411Z,100.00
2022-12-09T04:16:55.343Z,100.00
2022-12-09T04:21:57.044Z,100.00
2022-12-09T04:26:58.939Z,100.00
2022-12-09T04:32:00.721Z,100.00
2022-12-09T04:37:02.541Z,100.00
2022-12-09T04:42:04.605Z,100.00
2022-12-09T04:47:06.516Z,100.00
2022-12-09T04:52:08.138Z,100.00
2022-12-09T04:57:12.348Z,100.00
2022-12-09T05:02:15.123Z,100.00
2022-12-09T05:07:17.270Z,100.00
2022-12-09T05:12:19.439Z,100.00
2022-12-09T05:17:21.846Z,100.00
2022-12-09T05:22:24.011Z,100.00
2022-12-09T05:27:26.048Z,100.00
2022-12-09T05:32:30.957Z,100.00
2022-12-09T05:37:33.401Z,100.00
2022-12-09T05:42:41.168Z,100.00
2022-12-09T05:47:44.173Z,100.00
2022-12-09T05:52:46.635Z,100.00
2022-12-09T05:57:48.819Z,100.00
2022-12-09T06:02:50.957Z,100.00
2022-12-09T06:07:53.234Z,100.00
2022-12-09T06:12:55.454Z,100.00
2022-12-09T06:17:57.340Z,100.00
2022-12-09T06:22:59.518Z,100.00
2022-12-09T06:28:01.475Z,100.00
2022-12-09T06:33:17.282Z,100.00
2022-12-09T06:38:25.482Z,100.00
2022-12-09T06:43:27.779Z,100.00
2022-12-09T06:48:30.107Z,100.00
2022-12-09T06:53:35.363Z,100.00
2022-12-09T06:58:37.381Z,100.00
2022-12-09T07:03:40.940Z,100.00
2022-12-09T07:08:42.802Z,100.00
2022-12-09T07:13:44.943Z,100.00
2022-12-09T07:18:46.973Z,100.00
2022-12-09T07:23:49.186Z,100.00
2022-12-09T07:28:51.320Z,100.00
2022-12-09T07:33:55.549Z,100.00
2022-12-09T07:39:03.265Z,100.00
2022-12-09T07:44:05.464Z,100.00
2022-12-09T07:49:10.105Z,100.00
2022-12-09T07:54:16.550Z,100.00
2022-12-09T07:59:18.495Z,100.00
2022-12-09T08:04:20.850Z,100.00
2022-12-09T08:09:22.914Z,100.00
2022-12-09T08:14:24.736Z,100.00
2022-12-09T08:19:27.058Z,100.00
2022-12-09T08:24:29.464Z,100.00
2022-12-09T08:29:31.368Z,100.00
2022-12-09T08:34:33.315Z,100.00
2022-12-09T08:39:35.538Z,100.00
2022-12-09T08:44:38.804Z,100.00
2022-12-09T08:49:41.129Z,100.00
2022-12-09T08:54:43.127Z,100.00
2022-12-09T08:59:45.492Z,100.00
2022-12-09T09:04:48.455Z,100.00
2022-12-09T09:09:50.489Z,100.00
2022-12-09T09:14:54.810Z,98.96
2022-12-09T09:19:56.790Z,97.86
2022-12-09T09:24:58.997Z,98.97
2022-12-09T09:30:00.899Z,98.68
2022-12-09T09:35:03.384Z,100.00
2022-12-09T09:40:07.054Z,100.00
2022-12-09T09:45:16.005Z,95.62
2022-12-09T09:50:33.105Z,96.14
2022-12-09T09:55:43.135Z,96.95
2022-12-09T10:00:56.000Z,98.42
2022-12-09T10:06:06.399Z,95.51
2022-12-09T10:11:17.999Z,93.67
2022-12-09T10:16:26.631Z,93.93
2022-12-09T10:21:32.102Z,92.80
2022-12-09T10:26:35.354Z,93.26
2022-12-09T10:31:37.509Z,90.46
2022-12-09T10:36:43.872Z,90.45
2022-12-09T10:42:10.546Z,88.54
2022-12-09T10:47:27.212Z,90.26
2022-12-09T10:52:37.862Z,87.48
2022-12-09T10:57:40.011Z,88.20
2022-12-09T11:02:50.693Z,84.50
2022-12-09T11:07:54.341Z,81.96
2022-12-09T11:13:06.382Z,81.31
2022-12-09T11:18:19.210Z,77.87
2022-12-09T11:23:21.344Z,78.04
2022-12-09T11:28:32.862Z,78.88
2022-12-09T11:33:41.914Z,79.71
2022-12-09T11:38:46.528Z,75.64
2022-12-09T11:43:50.179Z,74.78
2022-12-09T11:48:57.369Z,74.96
2022-12-09T11:54:04.649Z,72.79
2022-12-09T11:59:20.855Z,75.59
2022-12-09T12:04:36.194Z,72.42
2022-12-09T12:09:57.356Z,73.52
2022-12-09T12:15:10.202Z,73.46
2022-12-09T12:20:13.728Z,75.90
2022-12-09T12:25:34.108Z,75.46
2022-12-09T12:30:48.152Z,76.41
2022-12-09T12:36:11.341Z,76.34
2022-12-09T12:41:44.245Z,75.83
2022-12-09T12:47:16.718Z,74.29
2022-12-09T12:52:59.408Z,75.89
2022-12-09T12:58:16.177Z,75.30
2022-12-09T13:03:26.105Z,75.70
2022-12-09T13:08:39.204Z,76.78
2022-12-09T13:13:51.306Z,76.15
2022-12-09T13:18:53.713Z,78.72
2022-12-09T13:24:26.701Z,78.67
2022-12-09T13:29:43.890Z,80.29
2022-12-09T13:34:55.467Z,80.86
2022-12-09T13:39:58.680Z,80.53
2022-12-09T13:45:23.500Z,80.36
2022-12-09T13:50:57.492Z,81.22
2022-12-09T13:56:07.097Z,80.72
2022-12-09T14:01:15.344Z,81.13
2022-12-09T14:06:46.308Z,81.61
2022-12-09T14:11:56.217Z,82.04
2022-12-09T14:17:00.405Z,82.26
2022-12-09T14:22:18.295Z,83.91
2022-12-09T14:27:27.884Z,84.47
2022-12-09T14:32:37.514Z,86.07
2022-12-09T14:37:51.993Z,85.60
2022-12-09T14:43:26.424Z,85.55
2022-12-09T14:48:35.398Z,86.27
2022-12-09T14:53:38.264Z,86.34
2022-12-09T14:58:40.234Z,87.10
2022-12-09T15:03:51.336Z,89.81
2022-12-09T15:08:58.415Z,91.10
2022-12-09T15:14:22.532Z,92.14
2022-12-09T15:24:51.626Z,91.55
2022-12-09T15:29:53.841Z,92.29
2022-12-09T15:34:56.070Z,93.72
2022-12-09T15:40:08.819Z,94.08
2022-12-09T15:45:19.424Z,94.29
2022-12-09T15:50:28.520Z,95.25
2022-12-09T15:55:37.769Z,96.57
2022-12-09T16:00:48.765Z,95.23
2022-12-09T16:06:01.130Z,94.78
2022-12-09T16:11:03.302Z,97.65
2022-12-09T16:16:33.077Z,97.36
2022-12-09T16:21:36.374Z,97.28
2022-12-09T16:26:44.183Z,98.28
2022-12-09T16:31:45.957Z,97.52
2022-12-09T16:36:56.208Z,97.36
2022-12-09T16:42:00.823Z,97.88
2022-12-09T16:47:12.639Z,95.68
2022-12-09T16:52:20.670Z,97.92
2022-12-09T16:57:22.406Z,99.21
2022-12-09T17:02:39.464Z,97.63
2022-12-09T17:07:41.277Z,97.96
2022-12-09T17:12:44.485Z,97.17
2022-12-09T17:17:48.888Z,97.68
2022-12-09T17:22:51.112Z,97.57
2022-12-09T17:27:53.288Z,98.11
2022-12-09T17:32:55.397Z,99.76
2022-12-09T17:37:57.114Z,99.94
2022-12-09T17:42:58.992Z,98.51
2022-12-09T17:48:00.939Z,96.77
2022-12-09T17:53:02.730Z,98.19
2022-12-09T17:58:04.796Z,98.91
2022-12-09T18:03:07.507Z,98.58
2022-12-09T18:08:09.931Z,97.18
2022-12-09T18:13:11.919Z,95.99
2022-12-09T18:18:13.713Z,97.41
2022-12-09T18:23:16.553Z,96.90
2022-12-09T18:28:18.248Z,96.49
2022-12-09T18:33:19.908Z,95.98
2022-12-09T18:38:21.673Z,95.52
2022-12-09T18:43:23.564Z,95.91
2022-12-09T18:48:25.292Z,95.59
2022-12-09T18:53:27.490Z,94.79
2022-12-09T18:58:57.515Z,95.07
2022-12-09T19:03:54.497Z,93.93
2022-12-09T19:08:58.810Z,91.90
2022-12-09T19:14:01.314Z,92.75
2022-12-09T19:19:09.200Z,92.24
2022-12-09T19:24:18.150Z,91.41
2022-12-09T19:29:20.748Z,92.46
2022-12-09T19:34:28.312Z,93.01
2022-12-09T19:39:31.606Z,91.71
2022-12-09T19:49:55.466Z,92.15
2022-12-09T19:54:57.362Z,91.75
2022-12-09T19:59:59.081Z,91.88
2022-12-09T20:05:00.821Z,92.51
2022-12-09T20:10:02.723Z,92.66
2022-12-09T20:15:07.953Z,91.97
2022-12-09T20:20:11.030Z,92.54
2022-12-09T20:25:12.762Z,93.70
2022-12-09T20:30:14.576Z,92.86
2022-12-09T20:35:16.655Z,92.82
2022-12-09T20:40:18.458Z,94.48
2022-12-09T20:45:20.194Z,93.79
2022-12-09T20:50:21.920Z,94.62
2022-12-09T20:55:23.641Z,93.64
2022-12-09T21:00:25.472Z,94.55
2022-12-09T21:05:27.270Z,94.21
2022-12-09T21:10:29.014Z,96.23
2022-12-09T21:15:30.793Z,94.72
2022-12-09T21:20:32.694Z,96.48
2022-12-09T21:25:34.417Z,96.17
2022-12-09T21:30:38.189Z,95.00
2022-12-09T21:35:45.302Z,95.62
2022-12-09T21:40:47.064Z,95.76
2022-12-09T21:45:48.857Z,95.32
2022-12-09T21:50:55.246Z,96.25
2022-12-09T21:56:15.861Z,97.28
2022-12-09T22:01:23.290Z,97.39
2022-12-09T22:06:25.788Z,97.20
2022-12-09T22:11:29.957Z,97.89
2022-12-09T22:16:34.561Z,98.44
2022-12-09T22:21:37.088Z,99.68
2022-12-09T22:26:40.017Z,100.00
2022-12-09T22:31:42.591Z,100.00
2022-12-09T22:36:45.022Z,100.00
2022-12-09T22:41:46.778Z,100.00
2022-12-09T22:46:49.176Z,100.00
2022-12-09T22:51:50.903Z,100.00
2022-12-09T22:56:52.744Z,100.00
2022-12-09T23:01:54.726Z,100.00
2022-12-09T23:06:56.632Z,100.00
2022-12-09T23:11:58.344Z,100.00
2022-12-09T23:17:00.022Z,100.00
2022-12-09T23:22:01.907Z,100.00
2022-12-09T23:27:04.717Z,100.00
2022-12-09T23:32:06.416Z,100.00
2022-12-09T23:37:08.021Z,99.79
2022-12-09T23:42:09.686Z,99.80
2022-12-09T23:47:11.413Z,100.00
2022-12-09T23:52:15.878Z,99.65
2022-12-09T23:57:17.586Z,99.26
